Patrick — WDC9572 — position and weather

sailwx.info

Track history (hours):
 
Tides and Currents Weather Stations Pressure Air Temp Water Temp Dewpoint Dewpoint Depression Visibility Wind Speed Wind Dir Waves Ship Positions

Patrick

Owner: SO CAL SHIP SERVICES, INC., TERMINAL ISLAND, CA. More information available from US FCC via Universal Licensing System and Coast Guard Vessel Documentation Center.

Last reported at 2017-Dec-28 02:39 UTC. Time now 2018-Jan-23 20:13 UTC.
Position N 33°40' W 118°15'.
Warning: this ship's position is 26 days out of date.

Type: Ship (hazmat cat B). MMSI: 367104070.

Date/timePositionNaut miles runAvg speedWind from/ knotsBaromVisibWave heightAir tempDewpointWater temp
2017-Dec-28 02:39N 33°40' W 118°15'214.8
2017-Dec-28 02:30N 33°38' W 118°15'2014.9
2017-Dec-28 01:10N 33°18' W 118°16'214.8
2017-Dec-28 01:00N 33°15' W 118°16'815.1
2017-Dec-28 00:29N 33°08' W 118°16'715.0
2017-Dec-28 00:00N 33°00' W 118°17'3514.9
2017-Dec-27 21:37N 32°25' W 118°18'41 9.1
2017-Dec-27 17:08N 31°44' W 118°22'0 1.3
2017-Dec-27 16:58N 31°44' W 118°22'0 0.2
2017-Dec-27 16:30N 31°44' W 118°22'1 2.2
2017-Dec-27 15:51N 31°45' W 118°24'1 1.4
2017-Dec-27 15:24N 31°45' W 118°25'1 1.3
2017-Dec-27 15:00N 31°45' W 118°25'2 1.5
2017-Dec-27 13:53N 31°46' W 118°27'1 1.1
2017-Dec-27 13:24N 31°47' W 118°27'8 1.3
2017-Dec-27 07:08N 31°49' W 118°36'0 1.3
2017-Dec-27 07:00N 31°49' W 118°36'8 2.1
2017-Dec-27 03:11N 31°58' W 118°37'212.0
2017-Dec-27 03:00N 31°59' W 118°35'611.8
2017-Dec-27 02:29N 32°05' W 118°32'611.8
2017-Dec-27 01:59N 32°10' W 118°30'612.0
2017-Dec-27 01:28N 32°16' W 118°28'1812.3
2017-Dec-27 00:01N 32°34' W 118°24'013.1
2017-Dec-27 00:00N 32°34' W 118°24'1612.7
2017-Dec-26 22:47N 32°49' W 118°20'413.7
2017-Dec-26 22:29N 32°53' W 118°19'713.9
2017-Dec-26 21:59N 33°00' W 118°17'613.8
2017-Dec-26 21:31N 33°07' W 118°17'1214.0
2017-Dec-26 20:37N 33°19' W 118°17'214.3
2017-Dec-26 20:27N 33°21' W 118°17'1914.3
2017-Dec-26 19:09N 33°40' W 118°15'  
Track history (hours):
 
Tides and Currents Weather Stations Pressure Air Temp Water Temp Dewpoint Dewpoint Depression Visibility Wind Speed Wind Dir Waves Ship Positions

Patrick

Owner: SO CAL SHIP SERVICES, INC., TERMINAL ISLAND, CA. More information available from US FCC via Universal Licensing System and Coast Guard Vessel Documentation Center.

Last reported at 2017-Dec-28 02:39 UTC. Time now 2018-Jan-23 20:13 UTC.
Position N 33°40' W 118°15'.
Warning: this ship's position is 26 days out of date.

Type: Ship (hazmat cat B). MMSI: 367104070.

Date/timePositionNaut miles runAvg speedWind from/ knotsBaromVisibWave heightAir tempDewpointWater temp
2017-Dec-28 02:39N 33°40' W 118°15'214.8
2017-Dec-28 02:30N 33°38' W 118°15'2014.9
2017-Dec-28 01:10N 33°18' W 118°16'214.8
2017-Dec-28 01:00N 33°15' W 118°16'815.1
2017-Dec-28 00:29N 33°08' W 118°16'715.0
2017-Dec-28 00:00N 33°00' W 118°17'3514.9
2017-Dec-27 21:37N 32°25' W 118°18'41 9.1
2017-Dec-27 17:08N 31°44' W 118°22'0 1.3
2017-Dec-27 16:58N 31°44' W 118°22'0 0.2
2017-Dec-27 16:30N 31°44' W 118°22'1 2.2
2017-Dec-27 15:51N 31°45' W 118°24'1 1.4
2017-Dec-27 15:24N 31°45' W 118°25'1 1.3
2017-Dec-27 15:00N 31°45' W 118°25'2 1.5
2017-Dec-27 13:53N 31°46' W 118°27'1 1.1
2017-Dec-27 13:24N 31°47' W 118°27'8 1.3
2017-Dec-27 07:08N 31°49' W 118°36'0 1.3
2017-Dec-27 07:00N 31°49' W 118°36'8 2.1
2017-Dec-27 03:11N 31°58' W 118°37'212.0
2017-Dec-27 03:00N 31°59' W 118°35'611.8
2017-Dec-27 02:29N 32°05' W 118°32'611.8
2017-Dec-27 01:59N 32°10' W 118°30'612.0
2017-Dec-27 01:28N 32°16' W 118°28'1812.3
2017-Dec-27 00:01N 32°34' W 118°24'013.1
2017-Dec-27 00:00N 32°34' W 118°24'1612.7
2017-Dec-26 22:47N 32°49' W 118°20'413.7
2017-Dec-26 22:29N 32°53' W 118°19'713.9
2017-Dec-26 21:59N 33°00' W 118°17'613.8
2017-Dec-26 21:31N 33°07' W 118°17'1214.0
2017-Dec-26 20:37N 33°19' W 118°17'214.3
2017-Dec-26 20:27N 33°21' W 118°17'1914.3
2017-Dec-26 19:09N 33°40' W 118°15'  

Dump ship's entire track history